createdAt,value
2022-08-16T00:00:05.042Z,44.40
2022-08-16T00:03:13.396Z,23.12
2022-08-16T00:06:15.551Z,30.15
2022-08-16T00:09:21.104Z,29.55
2022-08-16T00:12:26.691Z,36.60
2022-08-16T00:15:51.759Z,28.95
2022-08-16T00:18:53.879Z,24.82
2022-08-16T00:22:03.048Z,29.80
2022-08-16T00:25:05.515Z,34.27
2022-08-16T00:28:11.063Z,32.78
2022-08-16T00:31:16.729Z,24.50
2022-08-16T00:34:43.516Z,31.30
2022-08-16T00:37:57.122Z,38.63
2022-08-16T00:40:50.646Z,29.65
2022-08-16T00:43:54.868Z,30.37
2022-08-16T00:47:11.930Z,20.30
2022-08-16T00:50:17.531Z,25.70
2022-08-16T00:53:26.559Z,30.43
2022-08-16T00:56:58.456Z,28.42
2022-08-16T00:59:57.438Z,30.43
2022-08-16T01:02:57.150Z,28.23
2022-08-16T01:06:39.932Z,33.30
2022-08-16T01:09:11.976Z,36.42
2022-08-16T01:12:26.576Z,31.20
2022-08-16T01:15:25.573Z,25.60
2022-08-16T01:18:40.617Z,38.38
2022-08-16T01:22:47.791Z,28.02
2022-08-16T01:25:33.893Z,22.20
2022-08-16T01:28:36.961Z,24.75
2022-08-16T01:31:42.743Z,22.82
2022-08-16T01:34:56.730Z,24.80
2022-08-16T01:38:00.283Z,20.15
2022-08-16T01:41:09.037Z,22.62
2022-08-16T01:44:14.513Z,22.17
2022-08-16T01:47:21.360Z,20.45
2022-08-16T01:50:43.472Z,20.50
2022-08-16T01:53:35.273Z,26.85
2022-08-16T01:56:51.645Z,28.73
2022-08-16T01:59:58.195Z,27.62
2022-08-16T02:03:04.895Z,17.45
2022-08-16T02:06:10.567Z,29.18
2022-08-16T02:09:17.630Z,14.25
2022-08-16T02:12:45.868Z,12.82
2022-08-16T02:15:30.527Z,10.90
2022-08-16T03:31:57.028Z,9.80
2022-08-16T03:35:04.408Z,14.58
2022-08-16T03:38:33.078Z,19.57
2022-08-16T03:41:25.288Z,10.90
2022-08-16T03:44:44.208Z,13.72
2022-08-16T03:47:39.089Z,12.55
2022-08-16T03:50:59.541Z,10.78
2022-08-16T03:54:01.000Z,13.22
2022-08-16T03:56:59.796Z,11.93
2022-08-16T04:00:05.889Z,11.83
2022-08-16T04:03:18.509Z,15.43
2022-08-16T04:06:25.049Z,20.02
2022-08-16T04:09:35.479Z,24.20
2022-08-16T04:12:53.626Z,32.80
2022-08-16T04:15:47.318Z,27.22
2022-08-16T04:19:02.568Z,35.63
2022-08-16T04:22:08.583Z,46.23
2022-08-16T04:25:12.986Z,46.15
2022-08-16T04:28:51.765Z,40.03
2022-08-16T04:31:27.587Z,62.45
2022-08-16T04:34:34.362Z,53.17
2022-08-16T04:37:42.157Z,70.35
2022-08-16T04:40:50.357Z,74.85
2022-08-16T04:43:56.285Z,76.80
2022-08-16T04:47:23.972Z,85.22
2022-08-16T04:50:10.980Z,81.87
2022-08-16T04:53:30.550Z,89.92
2022-08-16T04:56:35.792Z,71.62
2022-08-16T04:59:42.806Z,95.40
2022-08-16T05:02:54.898Z,90.65
2022-08-16T05:05:59.729Z,83.17
2022-08-16T05:09:03.994Z,66.00
2022-08-16T05:12:11.026Z,60.60
2022-08-16T05:15:17.152Z,63.10
2022-08-16T05:18:27.738Z,41.18
2022-08-16T05:21:38.318Z,50.23
2022-08-16T05:24:40.993Z,41.03
2022-08-16T05:27:48.604Z,35.85
2022-08-16T05:30:55.155Z,43.78
2022-08-16T05:33:59.946Z,55.75
2022-08-16T05:37:05.382Z,51.92
2022-08-16T05:40:13.217Z,69.58
2022-08-16T05:43:18.793Z,78.62
2022-08-16T05:46:29.820Z,77.37
2022-08-16T05:49:39.669Z,73.78
2022-08-16T05:52:45.703Z,69.20
2022-08-16T05:55:51.781Z,67.53
2022-08-16T05:58:57.353Z,49.13
2022-08-16T06:02:06.161Z,26.87
2022-08-16T06:05:11.142Z,24.45
2022-08-16T06:08:30.870Z,18.60
2022-08-16T06:11:25.652Z,17.42
2022-08-16T06:14:33.298Z,23.22
2022-08-16T06:17:43.164Z,17.92
2022-08-16T06:20:55.166Z,18.95
2022-08-16T06:23:56.523Z,15.10
2022-08-16T06:27:03.710Z,11.85
2022-08-16T06:30:09.546Z,13.20
2022-08-16T06:33:22.450Z,21.17
2022-08-16T06:36:26.792Z,28.00
2022-08-16T06:39:49.167Z,31.55
2022-08-16T06:43:01.020Z,37.75
2022-08-16T06:46:09.806Z,35.63
2022-08-16T06:49:22.462Z,42.83
2022-08-16T06:52:57.935Z,42.27
2022-08-16T06:55:35.517Z,41.90
2022-08-16T06:58:44.078Z,36.08
2022-08-16T07:01:54.775Z,34.50
2022-08-16T07:05:00.426Z,33.42
2022-08-16T07:08:06.052Z,30.52
2022-08-16T07:11:11.578Z,37.08
2022-08-16T07:14:26.365Z,28.35
2022-08-16T07:17:27.041Z,22.73
2022-08-16T07:20:47.048Z,25.65
2022-08-16T07:23:42.649Z,25.10
2022-08-16T07:26:48.639Z,24.90
2022-08-16T07:29:56.336Z,22.65
2022-08-16T07:33:02.690Z,22.55
2022-08-16T07:36:09.655Z,22.35
2022-08-16T07:39:16.870Z,21.68
2022-08-16T07:42:34.869Z,19.15
2022-08-16T07:45:29.594Z,18.02
2022-08-16T07:48:36.520Z,20.77
2022-08-16T07:51:43.083Z,21.35
2022-08-16T07:54:49.085Z,17.20
2022-08-16T07:58:01.090Z,19.67
2022-08-16T08:01:00.164Z,28.30
2022-08-16T08:03:59.849Z,19.65
2022-08-16T08:07:09.000Z,27.05
2022-08-16T08:10:18.771Z,28.20
2022-08-16T08:13:41.655Z,40.98
2022-08-16T08:16:31.613Z,36.33
2022-08-16T08:19:37.375Z,34.35
2022-08-16T08:22:45.871Z,24.63
2022-08-16T08:25:54.767Z,21.73
2022-08-16T08:29:01.707Z,16.70
2022-08-16T08:32:57.509Z,16.17
2022-08-16T08:35:14.547Z,21.62
2022-08-16T08:38:44.250Z,30.97
2022-08-16T08:44:43.413Z,19.40
2022-08-16T08:47:58.318Z,20.77
2022-08-16T08:50:58.766Z,24.90
2022-08-16T08:54:09.438Z,22.20
2022-08-16T08:57:15.947Z,25.02
2022-08-16T09:00:26.937Z,16.45
2022-08-16T09:03:33.793Z,19.73
2022-08-16T09:06:44.371Z,20.77
2022-08-16T09:09:49.261Z,23.90
2022-08-16T09:12:56.035Z,25.43
2022-08-16T09:16:04.930Z,20.95
2022-08-16T09:19:11.984Z,22.90
2022-08-16T09:22:20.142Z,33.02
2022-08-16T09:25:34.482Z,20.95
2022-08-16T09:29:06.722Z,22.40
2022-08-16T09:31:44.913Z,25.85
2022-08-16T09:34:50.946Z,19.45
2022-08-16T09:38:00.550Z,25.68
2022-08-16T09:41:06.477Z,26.48
2022-08-16T09:45:10.643Z,24.00
2022-08-16T09:47:23.612Z,21.20
2022-08-16T09:50:37.155Z,20.62
2022-08-16T09:53:37.627Z,20.02
2022-08-16T09:56:52.755Z,25.05
2022-08-16T09:59:56.811Z,23.47
2022-08-16T10:03:09.139Z,33.85
2022-08-16T10:06:13.330Z,19.30
2022-08-16T10:09:20.736Z,25.88
2022-08-16T10:12:45.530Z,31.97
2022-08-16T10:15:55.805Z,23.87
2022-08-16T10:19:06.609Z,23.73
2022-08-16T10:22:05.858Z,18.07
2022-08-16T10:25:12.506Z,28.95
2022-08-16T10:28:28.672Z,25.65
2022-08-16T10:31:45.529Z,31.80
2022-08-16T10:34:33.975Z,32.35
2022-08-16T10:37:39.149Z,28.23
2022-08-16T10:40:45.520Z,21.93
2022-08-16T10:43:52.220Z,35.83
2022-08-16T10:46:58.123Z,22.10
2022-08-16T10:50:03.160Z,24.82
2022-08-16T10:53:12.016Z,27.98
2022-08-16T10:56:52.916Z,22.50
2022-08-16T10:59:38.427Z,25.88
2022-08-16T11:02:58.395Z,27.40
2022-08-16T11:09:20.855Z,26.57
2022-08-16T11:12:14.746Z,28.77
2022-08-16T11:15:13.763Z,23.52
2022-08-16T11:18:48.281Z,25.52
2022-08-16T11:21:29.340Z,22.30
2022-08-16T11:24:42.937Z,27.77
2022-08-16T11:27:36.434Z,29.30
2022-08-16T11:36:35.694Z,27.77
2022-08-16T11:39:40.878Z,23.42
2022-08-16T11:42:46.385Z,23.10
2022-08-16T11:45:54.195Z,18.92
2022-08-16T11:48:53.650Z,26.20
2022-08-16T11:52:00.008Z,17.67
2022-08-16T11:55:05.601Z,20.82
2022-08-16T11:58:11.925Z,29.42
2022-08-16T12:01:20.612Z,23.27
2022-08-16T12:04:28.232Z,22.27
2022-08-16T12:07:35.542Z,29.02
2022-08-16T12:10:43.252Z,23.35
2022-08-16T12:13:50.116Z,26.82
2022-08-16T12:16:57.742Z,24.37
2022-08-16T12:20:07.525Z,25.72
2022-08-16T12:23:19.625Z,20.90
2022-08-16T12:26:26.229Z,25.35
2022-08-16T12:29:31.914Z,26.33
2022-08-16T12:32:54.580Z,23.20
2022-08-16T12:35:49.325Z,20.82
2022-08-16T12:38:58.225Z,18.52
2022-08-16T12:42:04.990Z,20.92
2022-08-16T12:45:10.694Z,18.80
2022-08-16T12:48:35.143Z,22.02
2022-08-16T12:51:58.677Z,20.80
2022-08-16T12:54:56.731Z,27.93
2022-08-16T12:58:03.420Z,21.48
2022-08-16T13:01:10.261Z,27.32
2022-08-16T13:04:21.304Z,24.47
2022-08-16T13:07:27.171Z,18.67
2022-08-16T13:10:37.292Z,30.82
2022-08-16T13:13:43.445Z,20.25
2022-08-16T13:16:49.773Z,21.52
2022-08-16T13:20:10.919Z,23.30
2022-08-16T13:23:18.169Z,16.37
2022-08-16T13:26:23.581Z,25.57
2022-08-16T13:29:39.983Z,14.03
2022-08-16T13:32:40.127Z,23.00
2022-08-16T13:35:43.760Z,18.35
2022-08-16T13:38:51.050Z,24.60
2022-08-16T13:41:57.576Z,22.25
2022-08-16T13:45:05.207Z,22.20
2022-08-16T13:48:24.550Z,18.05
2022-08-16T13:51:21.134Z,31.27
2022-08-16T13:54:31.378Z,22.40
2022-08-16T13:57:53.706Z,21.25
2022-08-16T14:00:43.218Z,26.27
2022-08-16T14:03:49.750Z,26.55
2022-08-16T14:06:56.466Z,21.65
2022-08-16T14:10:02.323Z,33.80
2022-08-16T14:13:19.918Z,27.95
2022-08-16T14:16:23.918Z,28.00
2022-08-16T14:19:25.266Z,27.40
2022-08-16T14:22:45.369Z,21.37
2022-08-16T14:25:54.115Z,35.88
2022-08-16T14:29:03.092Z,36.13
2022-08-16T14:32:09.186Z,25.90
2022-08-16T14:35:17.158Z,29.02
2022-08-16T14:38:24.827Z,19.90
2022-08-16T14:41:32.666Z,31.82
2022-08-16T14:44:38.395Z,35.92
2022-08-16T14:47:45.404Z,30.70
2022-08-16T14:50:51.883Z,35.60
2022-08-16T14:53:57.336Z,21.45
2022-08-16T14:57:03.599Z,27.48
2022-08-16T15:00:09.560Z,35.50
2022-08-16T15:03:19.104Z,29.87
2022-08-16T15:06:25.305Z,26.12
2022-08-16T15:09:32.061Z,24.27
2022-08-16T15:12:38.194Z,30.57
2022-08-16T15:15:44.876Z,33.83
2022-08-16T15:18:50.774Z,35.38
2022-08-16T15:21:57.531Z,35.10
2022-08-16T15:25:05.226Z,27.10
2022-08-16T15:28:30.747Z,28.25
2022-08-16T15:31:21.343Z,40.33
2022-08-16T15:34:26.932Z,30.05
2022-08-16T15:37:42.707Z,25.95
2022-08-16T15:40:57.516Z,19.77
2022-08-16T15:43:48.067Z,26.12
2022-08-16T15:46:58.646Z,24.57
2022-08-16T15:50:01.602Z,28.32
2022-08-16T15:53:12.438Z,30.60
2022-08-16T15:56:18.167Z,31.37
2022-08-16T15:59:27.093Z,20.10
2022-08-16T16:02:34.477Z,21.50
2022-08-16T16:05:40.191Z,25.23
2022-08-16T16:08:46.065Z,22.73
2022-08-16T16:11:52.086Z,27.70
2022-08-16T16:15:00.547Z,28.00
2022-08-16T16:18:09.505Z,29.92
2022-08-16T16:21:22.134Z,21.27
2022-08-16T16:24:30.722Z,20.68
2022-08-16T16:27:35.228Z,36.28
2022-08-16T16:30:44.915Z,23.32
2022-08-16T16:33:50.331Z,24.85
2022-08-16T16:36:55.958Z,29.57
2022-08-16T16:40:01.427Z,22.42
2022-08-16T16:43:08.077Z,24.80
2022-08-16T16:46:41.091Z,28.83
2022-08-16T16:49:22.914Z,22.30
2022-08-16T16:52:43.242Z,32.58
2022-08-16T16:55:35.925Z,23.12
2022-08-16T16:59:01.718Z,26.05
2022-08-16T17:02:41.203Z,21.37
2022-08-16T17:05:13.773Z,30.45
2022-08-16T17:08:22.875Z,26.70
2022-08-16T17:11:37.497Z,20.95
2022-08-16T17:14:42.815Z,16.95
2022-08-16T17:20:55.254Z,29.40
2022-08-16T17:24:01.092Z,33.67
2022-08-16T17:27:07.608Z,28.00
2022-08-16T17:30:17.096Z,33.38
2022-08-16T17:33:24.809Z,26.82
2022-08-16T17:36:36.343Z,26.70
2022-08-16T17:39:26.422Z,27.32
2022-08-16T17:40:05.929Z,28.23
2022-08-16T17:42:47.963Z,31.52
2022-08-16T17:45:53.083Z,24.75
2022-08-16T17:48:59.338Z,26.82
2022-08-16T17:52:05.590Z,29.55
2022-08-16T17:55:12.377Z,21.65
2022-08-16T17:58:22.902Z,25.62
2022-08-16T18:01:25.208Z,34.03
2022-08-16T18:04:49.502Z,25.02
2022-08-16T18:07:38.774Z,23.87
2022-08-16T18:10:44.900Z,29.40
2022-08-16T18:13:53.108Z,25.60
2022-08-16T18:16:58.324Z,34.05
2022-08-16T18:20:04.076Z,35.25
2022-08-16T18:23:09.936Z,24.02
2022-08-16T18:26:18.164Z,20.37
2022-08-16T18:29:24.499Z,24.92
2022-08-16T18:32:29.831Z,25.90
2022-08-16T18:35:36.220Z,24.25
2022-08-16T18:38:41.828Z,31.17
2022-08-16T18:41:47.389Z,24.35
2022-08-16T18:44:57.493Z,28.23
2022-08-16T18:48:03.514Z,19.40
2022-08-16T18:51:17.494Z,25.32
2022-08-16T18:54:18.492Z,22.80
2022-08-16T18:57:24.709Z,22.05
2022-08-16T19:00:32.904Z,23.75
2022-08-16T19:03:45.801Z,23.87
2022-08-16T19:06:52.749Z,21.75
2022-08-16T19:09:59.497Z,25.10
2022-08-16T19:13:05.293Z,26.57
2022-08-16T19:16:12.672Z,26.90
2022-08-16T19:19:18.380Z,22.58
2022-08-16T19:22:39.418Z,20.55
2022-08-16T19:25:47.090Z,25.05
2022-08-16T19:28:59.964Z,25.70
2022-08-16T19:32:01.595Z,28.38
2022-08-16T19:35:10.689Z,24.07
2022-08-16T19:38:16.291Z,29.77
2022-08-16T19:41:21.455Z,25.17
2022-08-16T19:44:26.633Z,23.27
2022-08-16T19:47:32.125Z,28.98
2022-08-16T19:50:38.489Z,24.70
2022-08-16T19:53:45.716Z,35.15
2022-08-16T19:56:51.384Z,25.12
2022-08-16T19:59:59.383Z,31.82
2022-08-16T20:03:07.123Z,29.70
2022-08-16T20:06:12.843Z,36.03
2022-08-16T20:09:20.525Z,26.55
2022-08-16T20:12:30.362Z,24.63
2022-08-16T20:18:44.317Z,21.35
2022-08-16T20:21:50.089Z,29.02
2022-08-16T20:24:55.455Z,27.60
2022-08-16T20:28:02.967Z,33.73
2022-08-16T20:31:08.689Z,33.48
2022-08-16T20:34:14.085Z,33.28
2022-08-16T20:37:20.031Z,30.12
2022-08-16T20:40:34.500Z,28.32
2022-08-16T20:43:35.215Z,23.87
2022-08-16T20:46:40.455Z,24.80
2022-08-16T20:49:46.431Z,32.25
2022-08-16T20:52:52.389Z,28.10
2022-08-16T20:55:58.426Z,28.57
2022-08-16T20:59:04.834Z,22.17
2022-08-16T21:02:11.644Z,25.37
2022-08-16T21:05:20.370Z,40.33
2022-08-16T21:08:50.185Z,26.52
2022-08-16T21:11:34.847Z,33.92
2022-08-16T21:14:41.899Z,37.70
2022-08-16T21:17:48.123Z,33.98
2022-08-16T21:20:54.629Z,26.10
2022-08-16T21:24:01.570Z,33.58
2022-08-16T21:27:07.755Z,38.05
2022-08-16T21:30:15.261Z,35.05
2022-08-16T21:33:28.672Z,24.10
2022-08-16T21:36:36.324Z,30.95
2022-08-16T21:39:42.387Z,29.18
2022-08-16T21:42:47.692Z,24.98
2022-08-16T21:45:55.567Z,27.58
2022-08-16T21:49:00.621Z,23.45
2022-08-16T21:52:06.522Z,30.52
2022-08-16T21:55:11.704Z,29.15
2022-08-16T21:58:17.142Z,21.80
2022-08-16T22:01:22.869Z,19.75
2022-08-16T22:04:37.785Z,27.00
2022-08-16T22:07:37.047Z,24.63
2022-08-16T22:11:05.828Z,27.60
2022-08-16T22:13:57.798Z,30.17
2022-08-16T22:17:01.732Z,30.92
2022-08-16T22:20:07.940Z,36.60
2022-08-16T22:23:21.822Z,33.45
2022-08-16T22:26:30.838Z,26.90
2022-08-16T22:29:35.292Z,26.85
2022-08-16T22:32:43.353Z,23.55
2022-08-16T22:35:48.940Z,24.87
2022-08-16T22:38:57.540Z,25.32
2022-08-16T22:42:00.888Z,31.00
2022-08-16T22:45:06.261Z,38.58
2022-08-16T22:48:12.143Z,30.52
2022-08-16T22:51:17.634Z,30.05
2022-08-16T22:54:48.050Z,33.08
2022-08-16T22:57:31.538Z,27.10
2022-08-16T23:00:40.340Z,22.48
2022-08-16T23:03:46.415Z,25.92
2022-08-16T23:06:52.226Z,33.40
2022-08-16T23:09:58.847Z,29.15
2022-08-16T23:13:11.709Z,27.42
2022-08-16T23:16:20.627Z,29.95
2022-08-16T23:19:27.487Z,23.25
2022-08-16T23:22:33.161Z,30.65
2022-08-16T23:25:44.976Z,32.33
2022-08-16T23:28:50.334Z,31.75
2022-08-16T23:31:56.966Z,40.80
2022-08-16T23:35:03.117Z,28.62
2022-08-16T23:38:09.504Z,26.15
2022-08-16T23:41:17.617Z,32.65
2022-08-16T23:44:42.291Z,27.98
2022-08-16T23:47:31.470Z,26.73
2022-08-16T23:50:39.011Z,30.90
2022-08-16T23:53:48.119Z,27.32
2022-08-16T23:56:53.563Z,38.90
